Strathdon, United Kingdom
Current Conditions -  °F | °C
As of 10:50 AM on Monday 20 Oct 2014 (Local Time) from EGPD Reporting Station
Few Clouds Few Clouds  
Wind Chill: 52°   Ceiling: Unl
Heat Index: 52°   Visibility: 6mi
Dew Point: 46°   Wind: 9mph
Humidity: 82%   Direction: 230°SW
Pressure: 29.65"   Gusts: NA
Location:  57.2°N, 3.03°W
Report Text: EGPD 200950Z 23008KT 9999 FEW036 11/08 Q1004 NOSIG
Loading
Personal Weather Stations






























Interactive Weather Map
Tropical Storm Tracking
New forecast layout! Learn more

10-Day Weather Forecast

Advertisements
Track Severe Weather on mobile